Time;durP1;ratioP1;P1;durP2;ratioP2;P2;SDS_P1;SDS_P2;PMS_P1;PMS_P2;Temp;Humidity;BMP_temperature;BMP_pressure;BME280_temperature;BME280_humidity;BME280_pressure;Samples;Min_cycle;Max_cycle;Signal;HPM_P1;HPM_P2
2023/05/03 00:01:44;;;;;;;0.68;0.57;;;18.60;61.80;;;;;;4144922;28;20050;-48
2023/05/03 00:04:07;;;;;;;1.13;0.65;;;18.60;61.80;;;;;;4143459;28;20036;-44
2023/05/03 00:06:30;;;;;;;0.88;0.65;;;18.60;62.00;;;;;;4143513;28;20044;-50
2023/05/03 00:08:52;;;;;;;1.10;0.85;;;18.60;62.10;;;;;;4141603;28;20450;-47
2023/05/03 00:11:15;;;;;;;2.55;0.98;;;18.60;62.20;;;;;;4142398;28;20041;-46
2023/05/03 00:13:37;;;;;;;1.73;1.00;;;18.70;62.30;;;;;;4144795;28;20509;-46
2023/05/03 00:16:00;;;;;;;2.55;1.58;;;18.70;62.30;;;;;;4142552;28;20046;-46
2023/05/03 00:18:23;;;;;;;3.38;1.52;;;18.70;62.40;;;;;;4144503;28;20041;-45
2023/05/03 00:20:45;;;;;;;4.68;1.95;;;18.70;62.50;;;;;;4145968;28;20057;-44
2023/05/03 00:23:08;;;;;;;3.05;1.42;;;18.70;62.70;;;;;;4138417;28;20099;-47
2023/05/03 00:25:30;;;;;;;3.42;1.63;;;18.70;63.10;;;;;;4142533;28;20486;-47
2023/05/03 00:27:53;;;;;;;3.55;1.73;;;18.70;63.20;;;;;;4141424;28;20041;-46
2023/05/03 00:30:18;;;;;;;4.80;2.13;;;18.70;63.40;;;;;;4143068;28;20398;-46
2023/05/03 00:32:40;;;;;;;2.60;1.58;;;18.70;63.50;;;;;;4142993;28;20149;-46
2023/05/03 00:35:03;;;;;;;3.95;1.90;;;18.80;63.40;;;;;;4138939;28;20601;-45
2023/05/03 00:37:26;;;;;;;3.80;1.52;;;18.70;63.40;;;;;;4144806;28;20096;-45
2023/05/03 00:39:48;;;;;;;3.03;1.45;;;18.80;63.60;;;;;;4139503;28;20054;-48
2023/05/03 00:42:10;;;;;;;3.65;1.95;;;18.80;63.70;;;;;;4130404;28;20056;-47
2023/05/03 00:44:33;;;;;;;4.53;1.58;;;18.80;63.60;;;;;;4144038;28;20081;-47
2023/05/03 00:46:56;;;;;;;3.50;1.52;;;18.80;63.50;;;;;;4144532;28;20383;-45
2023/05/03 00:49:19;;;;;;;4.28;1.60;;;18.80;63.50;;;;;;4143572;28;20030;-48
2023/05/03 00:51:42;;;;;;;3.25;1.70;;;18.90;63.50;;;;;;4142160;28;20501;-46
2023/05/03 00:54:05;;;;;;;4.85;1.60;;;18.90;63.40;;;;;;4142253;28;20121;-48
2023/05/03 00:56:28;;;;;;;2.67;1.65;;;18.90;63.40;;;;;;4141971;28;20525;-43
2023/05/03 00:58:51;;;;;;;3.15;1.50;;;18.90;63.30;;;;;;4143302;28;20549;-51
2023/05/03 01:01:14;;;;;;;3.47;1.58;;;18.90;63.20;;;;;;4142667;28;20374;-44
2023/05/03 01:03:40;;;;;;;2.40;1.20;;;18.90;63.20;;;;;;4142845;28;20041;-47
2023/05/03 01:06:19;;;;;;;2.08;1.17;;;18.90;63.00;;;;;;4128278;28;20045;-48
2023/05/03 01:08:52;;;;;;;2.70;1.45;;;19.00;63.00;;;;;;4145173;28;20052;-47
2023/05/03 01:11:24;;;;;;;2.03;1.30;;;19.00;62.80;;;;;;4135185;28;20486;-47
2023/05/03 01:14:08;;;;;;;1.83;1.20;;;19.00;62.70;;;;;;4142332;28;20057;-44
2023/05/03 01:16:49;;;;;;;3.20;1.63;;;19.00;62.50;;;;;;4143831;28;20038;-49
2023/05/03 01:19:23;;;;;;;1.48;1.15;;;19.00;62.20;;;;;;4141384;28;20124;-45
2023/05/03 01:21:51;;;;;;;1.70;1.00;;;19.10;62.20;;;;;;4143065;28;20049;-50
2023/05/03 01:24:21;;;;;;;0.93;0.90;;;19.00;61.80;;;;;;4142465;28;20029;-49
2023/05/03 01:26:43;;;;;;;2.83;1.02;;;19.10;61.60;;;;;;4140451;28;20049;-51
2023/05/03 01:29:06;;;;;;;3.38;1.00;;;19.10;61.20;;;;;;4120343;28;20100;-45
2023/05/03 01:31:40;;;;;;;1.60;1.00;;;19.10;61.20;;;;;;4143960;28;20096;-47
2023/05/03 01:34:16;;;;;;;2.08;1.00;;;19.10;60.80;;;;;;4142143;28;20034;-45
2023/05/03 01:36:43;;;;;;;2.60;0.80;;;19.10;60.70;;;;;;4129470;28;20041;-49
2023/05/03 01:39:09;;;;;;;1.88;0.90;;;19.10;60.20;;;;;;4135936;28;20050;-47
2023/05/03 01:41:33;;;;;;;2.97;0.98;;;19.20;59.90;;;;;;4135968;28;20046;-51
2023/05/03 01:43:56;;;;;;;1.17;0.77;;;19.20;59.60;;;;;;4143609;28;20398;-48
2023/05/03 01:46:19;;;;;;;1.98;0.93;;;19.20;59.30;;;;;;4143652;28;20041;-45
2023/05/03 01:48:41;;;;;;;2.25;1.33;;;19.20;59.10;;;;;;4133567;28;20191;-44
2023/05/03 01:51:04;;;;;;;3.08;0.93;;;19.20;58.90;;;;;;4143942;28;20486;-46
2023/05/03 01:53:27;;;;;;;2.45;0.80;;;19.20;58.80;;;;;;4143111;28;20038;-44
2023/05/03 01:55:49;;;;;;;1.27;0.68;;;19.20;58.50;;;;;;4139735;28;20041;-44
2023/05/03 01:58:12;;;;;;;0.80;0.65;;;19.20;58.30;;;;;;4139821;28;20062;-47
2023/05/03 02:00:34;;;;;;;1.95;0.70;;;19.20;58.10;;;;;;4139447;28;20049;-47
2023/05/03 02:02:57;;;;;;;2.38;0.95;;;19.20;57.80;;;;;;4126421;28;20042;-45
2023/05/03 02:05:19;;;;;;;1.27;0.80;;;19.20;57.70;;;;;;4143328;28;20038;-49
2023/05/03 02:07:42;;;;;;;3.22;0.77;;;19.20;57.60;;;;;;4142436;28;20037;-44
2023/05/03 02:10:10;;;;;;;1.25;0.75;;;19.20;57.30;;;;;;4143151;28;20160;-45
2023/05/03 02:12:33;;;;;;;1.45;0.80;;;19.30;57.00;;;;;;4142677;28;20517;-46
2023/05/03 02:14:55;;;;;;;1.70;0.70;;;19.30;57.00;;;;;;4134550;28;20045;-43
2023/05/03 02:17:19;;;;;;;1.10;0.77;;;19.30;56.90;;;;;;4142995;28;20554;-44
2023/05/03 02:19:42;;;;;;;2.40;0.80;;;19.30;56.80;;;;;;4133393;28;20465;-44
2023/05/03 02:22:04;;;;;;;1.88;0.70;;;19.30;57.20;;;;;;4141698;28;20056;-44
2023/05/03 02:24:28;;;;;;;2.38;0.82;;;19.30;56.40;;;;;;4142447;28;20100;-44
2023/05/03 02:26:50;;;;;;;1.75;0.73;;;19.30;56.20;;;;;;4129218;28;20595;-46
2023/05/03 02:29:13;;;;;;;1.90;0.70;;;19.30;56.10;;;;;;4143330;28;20042;-46
2023/05/03 02:31:35;;;;;;;1.77;0.88;;;19.40;56.10;;;;;;4142702;28;20042;-46
2023/05/03 02:33:58;;;;;;;1.30;1.00;;;19.40;56.00;;;;;;4144324;28;20045;-46
2023/05/03 02:36:20;;;;;;;2.95;0.88;;;19.40;55.80;;;;;;4129701;28;20044;-46
2023/05/03 02:38:42;;;;;;;2.00;0.80;;;19.40;55.60;;;;;;4145916;28;20069;-47
2023/05/03 02:41:05;;;;;;;1.08;0.70;;;19.40;55.60;;;;;;4138921;28;20045;-46
2023/05/03 02:43:27;;;;;;;2.35;0.80;;;19.40;55.40;;;;;;4146590;28;20125;-44
2023/05/03 02:45:50;;;;;;;1.48;0.82;;;19.40;55.30;;;;;;4139249;28;20042;-45
2023/05/03 02:48:12;;;;;;;1.65;1.05;;;19.50;55.20;;;;;;4142933;28;20176;-44
2023/05/03 02:50:34;;;;;;;1.25;0.70;;;19.50;55.00;;;;;;4146084;28;20077;-45
2023/05/03 02:52:57;;;;;;;1.42;0.88;;;19.50;55.00;;;;;;4146119;28;20073;-45
2023/05/03 02:55:19;;;;;;;5.70;1.25;;;19.50;54.70;;;;;;4136296;28;20065;-45
2023/05/03 02:57:42;;;;;;;1.42;0.70;;;19.60;54.90;;;;;;4145891;28;20057;-45
2023/05/03 03:00:05;;;;;;;2.95;0.80;;;19.60;54.80;;;;;;4137844;28;20472;-48
2023/05/03 03:02:27;;;;;;;1.85;0.82;;;19.60;54.80;;;;;;4146475;28;20075;-46
2023/05/03 03:04:50;;;;;;;2.25;0.68;;;19.60;54.80;;;;;;4137374;28;20045;-44
2023/05/03 03:07:12;;;;;;;2.08;0.90;;;19.70;54.80;;;;;;4145903;28;20382;-48
2023/05/03 03:09:34;;;;;;;1.75;0.82;;;19.70;54.60;;;;;;4146358;28;20044;-46
2023/05/03 03:11:57;;;;;;;1.30;0.73;;;19.70;54.60;;;;;;4145457;28;20045;-47
2023/05/03 03:14:19;;;;;;;1.23;0.70;;;19.80;54.50;;;;;;4145267;28;20464;-46
2023/05/03 03:16:42;;;;;;;2.33;0.90;;;19.80;54.30;;;;;;4145140;28;20124;-45
2023/05/03 03:19:04;;;;;;;2.17;0.98;;;19.80;54.10;;;;;;4144356;28;20045;-46
2023/05/03 03:21:27;;;;;;;1.75;0.77;;;19.90;54.00;;;;;;4129802;28;20066;-47
2023/05/03 03:23:50;;;;;;;1.88;0.90;;;19.90;53.90;;;;;;4145752;28;20081;-49
2023/05/03 03:26:12;;;;;;;1.25;0.60;;;20.00;53.80;;;;;;4145127;28;20053;-44
2023/05/03 03:28:35;;;;;;;1.50;0.77;;;20.00;53.50;;;;;;4156670;28;20041;-48
2023/05/03 03:30:57;;;;;;;1.70;0.80;;;20.00;53.30;;;;;;4136007;28;20048;-46
2023/05/03 03:33:20;;;;;;;1.55;0.60;;;20.10;53.20;;;;;;4145364;28;20038;-46
2023/05/03 03:35:43;;;;;;;0.98;0.75;;;20.20;53.20;;;;;;4143580;28;20037;-48
2023/05/03 03:38:06;;;;;;;1.67;0.73;;;20.20;53.10;;;;;;4129642;28;20034;-45
2023/05/03 03:40:28;;;;;;;1.17;0.57;;;20.20;53.00;;;;;;4144927;28;20045;-45
2023/05/03 03:42:50;;;;;;;1.48;0.77;;;20.30;53.00;;;;;;4140840;28;20042;-50
2023/05/03 03:45:13;;;;;;;1.70;0.45;;;20.40;52.90;;;;;;4139619;28;20030;-47
2023/05/03 03:47:35;;;;;;;2.28;0.80;;;20.40;52.70;;;;;;4123735;28;20042;-44
2023/05/03 03:50:00;;;;;;;1.35;0.50;;;20.50;52.70;;;;;;4144831;28;20038;-46
2023/05/03 03:52:23;;;;;;;2.78;0.98;;;20.60;52.60;;;;;;4138877;28;20034;-45
2023/05/03 03:54:45;;;;;;;1.77;0.65;;;20.60;52.00;;;;;;4143519;28;20457;-46
2023/05/03 03:57:08;;;;;;;1.83;0.88;;;20.70;51.60;;;;;;4124114;28;20081;-46
2023/05/03 03:59:30;;;;;;;2.65;1.05;;;20.70;51.30;;;;;;4144603;28;20042;-46
2023/05/03 04:01:53;;;;;;;2.60;1.20;;;20.80;51.30;;;;;;4144268;28;20062;-45
2023/05/03 04:04:15;;;;;;;3.08;1.52;;;20.80;51.30;;;;;;4144480;28;20056;-46
2023/05/03 04:06:37;;;;;;;2.42;1.30;;;20.90;51.10;;;;;;4144053;28;20428;-45
2023/05/03 04:09:00;;;;;;;2.30;1.10;;;21.00;51.10;;;;;;4143916;28;20062;-45
2023/05/03 04:11:22;;;;;;;2.13;1.00;;;21.10;50.90;;;;;;4143225;28;20033;-45
2023/05/03 04:13:45;;;;;;;1.65;1.27;;;21.10;50.90;;;;;;4144033;28;20402;-50
2023/05/03 04:16:08;;;;;;;3.85;1.08;;;21.20;51.00;;;;;;4130085;28;20139;-44
2023/05/03 04:18:30;;;;;;;2.53;1.13;;;21.20;50.80;;;;;;4143813;28;20038;-48
2023/05/03 04:20:52;;;;;;;1.77;0.80;;;21.30;50.80;;;;;;4143394;28;20049;-46
2023/05/03 04:23:15;;;;;;;2.00;0.80;;;21.40;50.70;;;;;;4144662;28;20053;-48
2023/05/03 04:25:37;;;;;;;2.22;1.30;;;21.40;50.70;;;;;;4129029;28;20046;-44
2023/05/03 04:28:00;;;;;;;1.48;0.73;;;21.50;50.60;;;;;;4136150;28;20042;-46
2023/05/03 04:30:23;;;;;;;1.08;0.77;;;21.60;50.60;;;;;;4143953;28;20501;-48
2023/05/03 04:32:46;;;;;;;3.67;0.90;;;21.70;50.60;;;;;;4144050;28;20037;-48
2023/05/03 04:35:09;;;;;;;2.22;0.88;;;21.70;50.40;;;;;;4144061;28;20482;-48
2023/05/03 04:37:31;;;;;;;1.27;0.93;;;21.80;50.30;;;;;;4144731;28;20064;-48
2023/05/03 04:39:54;;;;;;;0.65;0.57;;;21.90;50.20;;;;;;4144584;28;20054;-47
2023/05/03 04:42:17;;;;;;;0.82;0.60;;;22.00;50.40;;;;;;4135262;28;20054;-48
2023/05/03 04:44:39;;;;;;;1.40;0.82;;;22.00;50.10;;;;;;4143506;28;20401;-50
2023/05/03 04:47:02;;;;;;;1.40;0.60;;;22.10;50.10;;;;;;4133768;28;20109;-44
2023/05/03 04:49:24;;;;;;;1.27;0.70;;;22.20;49.90;;;;;;4128090;28;20034;-46
2023/05/03 04:51:46;;;;;;;1.50;0.73;;;22.20;49.80;;;;;;4143463;28;20045;-44
2023/05/03 04:54:09;;;;;;;2.47;0.73;;;22.20;49.50;;;;;;4144596;28;20034;-45
2023/05/03 04:56:34;;;;;;;1.63;0.77;;;22.30;49.70;;;;;;4143124;28;20072;-46
2023/05/03 04:58:56;;;;;;;1.30;0.80;;;22.40;49.50;;;;;;4140228;28;20037;-44
2023/05/03 05:01:25;;;;;;;1.02;0.68;;;22.40;49.40;;;;;;4143512;28;20065;-46
2023/05/03 05:03:47;;;;;;;2.10;0.80;;;22.50;48.90;;;;;;4136273;28;20805;-47
2023/05/03 05:06:11;;;;;;;1.13;0.57;;;22.50;49.50;;;;;;4143050;28;20050;-48
2023/05/03 05:08:33;;;;;;;1.35;0.88;;;22.60;49.60;;;;;;4122249;28;20050;-45
2023/05/03 05:10:55;;;;;;;1.02;0.70;;;22.60;49.20;;;;;;4143810;28;20152;-45
2023/05/03 05:13:18;;;;;;;0.90;0.60;;;22.60;49.50;;;;;;4135036;28;20115;-46
2023/05/03 05:15:41;;;;;;;1.40;0.60;;;22.60;49.80;;;;;;4143715;28;20331;-45
2023/05/03 05:18:03;;;;;;;1.08;0.43;;;22.60;49.60;;;;;;4132818;28;20121;-45
2023/05/03 05:20:26;;;;;;;2.35;0.57;;;22.70;49.70;;;;;;4143632;28;20187;-45
2023/05/03 05:22:48;;;;;;;2.67;0.60;;;22.70;50.00;;;;;;4131508;28;20038;-47
2023/05/03 05:25:10;;;;;;;0.60;0.60;;;22.70;50.10;;;;;;4142969;28;20129;-48
2023/05/03 05:27:33;;;;;;;2.47;1.20;;;22.70;50.20;;;;;;4142272;28;20116;-45
2023/05/03 05:29:56;;;;;;;0.60;0.50;;;22.70;50.30;;;;;;4142539;28;20061;-46
2023/05/03 05:32:18;;;;;;;2.35;0.75;;;22.60;50.30;;;;;;4142566;28;20403;-44
2023/05/03 05:34:41;;;;;;;1.42;0.50;;;22.60;50.30;;;;;;4141283;28;20047;-44
2023/05/03 05:37:04;;;;;;;1.38;0.57;;;22.60;50.20;;;;;;4122781;28;20092;-49
2023/05/03 05:39:26;;;;;;;1.00;0.67;;;22.60;50.30;;;;;;4143228;28;20064;-50
2023/05/03 05:41:49;;;;;;;0.88;0.30;;;22.60;50.20;;;;;;4139613;28;20046;-47
2023/05/03 05:44:12;;;;;;;0.50;0.40;;;22.50;50.20;;;;;;4144231;28;20041;-48
2023/05/03 05:46:34;;;;;;;1.02;0.50;;;22.50;50.10;;;;;;4132429;28;20383;-48
2023/05/03 05:48:57;;;;;;;1.05;0.65;;;22.40;50.10;;;;;;4143825;28;20415;-47
2023/05/03 05:51:19;;;;;;;2.45;0.40;;;22.50;50.20;;;;;;4143596;28;20092;-48
2023/05/03 05:53:42;;;;;;;0.30;0.30;;;22.40;50.20;;;;;;4137897;28;20046;-48
2023/05/03 05:56:05;;;;;;;1.45;0.60;;;22.40;50.20;;;;;;4142538;28;20042;-48
2023/05/03 05:58:27;;;;;;;0.73;0.50;;;22.40;50.20;;;;;;4144765;28;20041;-49
2023/05/03 06:00:50;;;;;;;0.80;0.47;;;22.40;50.30;;;;;;4142300;28;20041;-47
2023/05/03 06:03:13;;;;;;;0.75;0.50;;;22.30;50.10;;;;;;4132261;28;20033;-49
2023/05/03 06:05:35;;;;;;;1.17;0.40;;;22.30;49.90;;;;;;4127075;28;20041;-47
2023/05/03 06:07:58;;;;;;;0.85;0.40;;;22.30;50.40;;;;;;4144043;28;20542;-46
2023/05/03 06:10:21;;;;;;;0.22;0.22;;;22.30;50.10;;;;;;4131676;28;20046;-45
2023/05/03 06:12:43;;;;;;;0.40;0.40;;;22.30;50.40;;;;;;4146213;28;20041;-46
2023/05/03 06:15:06;;;;;;;0.70;0.32;;;22.30;50.40;;;;;;4125940;28;20042;-48
2023/05/03 06:17:29;;;;;;;0.63;0.40;;;22.30;50.20;;;;;;4144802;28;20120;-47
2023/05/03 06:19:52;;;;;;;0.80;0.50;;;22.30;50.40;;;;;;4139423;28;20279;-44
2023/05/03 06:22:14;;;;;;;0.63;0.40;;;22.30;50.40;;;;;;4145632;28;20100;-44
2023/05/03 06:24:37;;;;;;;1.13;0.60;;;22.30;50.50;;;;;;4139023;28;20077;-46
2023/05/03 06:26:59;;;;;;;0.70;0.50;;;22.30;50.40;;;;;;4145096;28;20046;-43
2023/05/03 06:29:21;;;;;;;1.13;0.50;;;22.30;50.50;;;;;;4148050;28;20053;-47
2023/05/03 06:31:44;;;;;;;0.60;0.40;;;22.30;50.60;;;;;;4146820;28;20030;-43
2023/05/03 06:34:07;;;;;;;0.55;0.40;;;22.30;50.60;;;;;;4144207;28;20116;-48
2023/05/03 06:36:29;;;;;;;2.53;0.70;;;22.30;50.70;;;;;;4146208;28;20044;-43
2023/05/03 06:38:52;;;;;;;0.98;0.50;;;22.30;50.40;;;;;;4146155;28;20053;-46
2023/05/03 06:41:14;;;;;;;0.93;0.63;;;22.30;50.60;;;;;;4145273;28;20410;-44
2023/05/03 06:43:37;;;;;;;0.80;0.68;;;22.30;50.90;;;;;;4129573;28;20512;-49
2023/05/03 06:45:59;;;;;;;0.73;0.52;;;22.40;50.80;;;;;;4148186;28;20089;-51
2023/05/03 06:48:22;;;;;;;0.88;0.70;;;22.80;50.00;;;;;;4145340;28;20041;-46
2023/05/03 06:50:44;;;;;;;1.00;0.60;;;23.50;48.80;;;;;;4138968;28;20190;-47
2023/05/03 06:53:07;;;;;;;0.88;0.50;;;24.20;47.20;;;;;;4145486;28;20486;-45
2023/05/03 06:55:31;;;;;;;1.75;0.70;;;24.10;47.10;;;;;;4123247;28;20066;-45
2023/05/03 06:57:54;;;;;;;1.38;0.68;;;23.70;47.70;;;;;;4147068;28;20394;-47
2023/05/03 07:00:17;;;;;;;1.05;0.60;;;23.30;48.40;;;;;;4139914;28;20100;-45
2023/05/03 07:02:39;;;;;;;1.40;0.52;;;23.00;49.00;;;;;;4141050;28;20042;-44
2023/05/03 07:05:02;;;;;;;0.85;0.50;;;22.80;49.60;;;;;;4145387;28;20564;-43
2023/05/03 07:07:24;;;;;;;2.15;0.70;;;22.70;50.00;;;;;;4145786;28;20255;-48
2023/05/03 07:09:47;;;;;;;0.90;0.50;;;22.60;50.40;;;;;;4147508;28;20121;-42
2023/05/03 07:12:10;;;;;;;1.02;0.63;;;22.40;50.70;;;;;;4145849;28;20441;-46
2023/05/03 07:14:33;;;;;;;1.05;0.47;;;22.40;50.80;;;;;;4118343;28;20070;-45
2023/05/03 07:16:55;;;;;;;1.75;0.55;;;22.30;51.00;;;;;;4145337;28;20069;-44
2023/05/03 07:19:17;;;;;;;0.70;0.60;;;22.20;51.20;;;;;;4140837;28;20033;-44
2023/05/03 07:21:40;;;;;;;1.02;0.60;;;22.20;51.40;;;;;;4138440;28;20100;-47
2023/05/03 07:24:02;;;;;;;1.70;0.68;;;22.20;51.60;;;;;;4145225;28;20791;-49
2023/05/03 07:26:27;;;;;;;0.90;0.57;;;22.10;51.60;;;;;;4146328;28;20069;-44
2023/05/03 07:28:50;;;;;;;0.60;0.50;;;22.10;51.60;;;;;;4140699;28;20375;-44
2023/05/03 07:31:12;;;;;;;2.65;0.90;;;22.10;51.90;;;;;;4137682;28;20040;-44
2023/05/03 07:33:36;;;;;;;0.98;0.68;;;22.10;52.40;;;;;;4145368;28;20041;-46
2023/05/03 07:35:58;;;;;;;0.90;0.68;;;22.00;51.70;;;;;;4144154;28;20145;-43
2023/05/03 07:38:20;;;;;;;3.55;1.02;;;22.00;51.50;;;;;;4142087;28;20072;-45
2023/05/03 07:40:43;;;;;;;2.22;0.77;;;22.00;51.50;;;;;;4121213;28;20046;-43
2023/05/03 07:43:08;;;;;;;1.30;0.60;;;22.00;51.80;;;;;;4137930;28;20038;-44
2023/05/03 07:45:31;;;;;;;2.90;1.25;;;22.00;51.10;;;;;;4137808;28;20058;-46
2023/05/03 07:47:55;;;;;;;1.58;0.90;;;22.00;51.10;;;;;;4146618;28;20046;-49
2023/05/03 07:50:18;;;;;;;1.10;0.80;;;22.00;50.90;;;;;;4144511;28;20034;-44
2023/05/03 07:52:42;;;;;;;1.42;0.85;;;22.00;51.00;;;;;;4144902;28;20418;-45
2023/05/03 07:55:05;;;;;;;2.10;1.00;;;22.00;51.20;;;;;;4130684;28;20034;-47
2023/05/03 07:57:28;;;;;;;2.38;1.02;;;22.00;51.30;;;;;;4143273;28;20074;-46
2023/05/03 07:59:50;;;;;;;2.70;1.35;;;21.90;51.50;;;;;;4139988;28;20103;-44
2023/05/03 08:02:13;;;;;;;1.20;0.90;;;21.90;51.70;;;;;;4144058;28;20064;-48
2023/05/03 08:04:35;;;;;;;2.22;0.80;;;21.90;51.80;;;;;;4141410;28;20038;-47
2023/05/03 08:07:03;;;;;;;3.10;1.20;;;21.90;52.00;;;;;;4140419;28;20041;-47
2023/05/03 08:09:27;;;;;;;2.47;1.23;;;21.90;52.10;;;;;;4143599;28;20279;-50
2023/05/03 08:11:48;;;;;;;;;;;21.90;52.20;;;;;;4139368;28;20456;-48
2023/05/03 08:14:11;;;;;;;1.35;0.90;;;21.90;52.30;;;;;;4144252;28;19909;-47
2023/05/03 08:16:34;;;;;;;1.65;0.75;;;21.90;52.30;;;;;;4135278;28;20057;-44
2023/05/03 08:18:56;;;;;;;1.85;0.98;;;21.90;52.40;;;;;;4141306;28;20096;-50
2023/05/03 08:21:19;;;;;;;3.35;0.80;;;21.90;52.50;;;;;;4141531;28;20042;-45
2023/05/03 08:23:41;;;;;;;4.85;1.15;;;21.90;52.40;;;;;;4142167;28;20034;-45
2023/05/03 08:26:06;;;;;;;5.13;0.68;;;21.90;53.00;;;;;;4140182;28;20102;-45
2023/05/03 08:28:29;;;;;;;2.00;0.70;;;21.90;53.40;;;;;;4140620;28;20034;-47
2023/05/03 08:30:52;;;;;;;15.27;1.40;;;21.90;53.80;;;;;;4137975;28;20466;-47
2023/05/03 08:33:14;;;;;;;4.95;1.13;;;22.00;53.90;;;;;;4139950;28;21564;-47
2023/05/03 08:35:37;;;;;;;5.30;1.13;;;22.00;53.90;;;;;;4142503;28;20037;-49
2023/05/03 08:37:59;;;;;;;7.18;2.03;;;21.90;53.80;;;;;;4138306;28;20414;-50
2023/05/03 08:40:22;;;;;;;4.30;0.93;;;21.90;53.70;;;;;;4140566;28;20447;-45
2023/05/03 08:42:45;;;;;;;1.93;1.07;;;21.90;53.50;;;;;;4140809;28;20068;-45
2023/05/03 08:45:12;;;;;;;2.63;1.30;;;21.90;53.40;;;;;;4137599;28;20297;-46
2023/05/03 08:47:37;;;;;;;3.90;1.15;;;21.90;53.90;;;;;;4139180;28;20064;-48
2023/05/03 08:50:00;;;;;;;3.28;1.08;;;22.00;54.20;;;;;;4141689;28;20034;-49
2023/05/03 08:52:22;;;;;;;2.90;1.00;;;22.00;54.30;;;;;;4136152;28;20029;-50
2023/05/03 08:54:45;;;;;;;3.05;0.93;;;22.00;54.60;;;;;;4142400;28;20350;-49
2023/05/03 08:57:14;;;;;;;4.85;1.35;;;22.00;54.90;;;;;;4141930;28;20449;-47
2023/05/03 08:59:50;;;;;;;5.28;0.80;;;22.00;54.90;;;;;;4142846;28;20127;-46
2023/05/03 09:02:15;;;;;;;1.77;0.90;;;22.10;55.30;;;;;;4136687;28;20060;-49
2023/05/03 09:04:37;;;;;;;3.50;1.05;;;22.10;55.40;;;;;;4123968;28;20117;-45
2023/05/03 09:07:10;;;;;;;4.55;1.05;;;22.20;55.70;;;;;;4137420;28;20104;-47
2023/05/03 09:09:32;;;;;;;4.35;1.35;;;22.20;55.80;;;;;;4136240;28;20465;-45
2023/05/03 09:11:56;;;;;;;4.50;1.23;;;22.20;56.10;;;;;;4136597;28;20038;-50
2023/05/03 09:14:20;;;;;;;;;;;22.30;56.20;;;;;;4137747;28;20041;-46
2023/05/03 09:16:44;;;;;;;3.42;0.98;;;22.30;56.20;;;;;;4138640;28;19941;-45
2023/05/03 09:19:11;;;;;;;2.63;0.90;;;22.30;56.40;;;;;;4134305;28;20034;-45
2023/05/03 09:21:34;;;;;;;3.03;0.80;;;22.40;56.40;;;;;;4121822;28;20617;-43
2023/05/03 09:23:57;;;;;;;1.30;0.80;;;22.40;56.30;;;;;;4116305;28;20058;-44
2023/05/03 09:26:30;;;;;;;4.43;0.80;;;22.40;56.30;;;;;;4131618;28;20712;-44
2023/05/03 09:28:53;;;;;;;3.60;0.90;;;22.40;56.30;;;;;;4129382;28;20029;-43
2023/05/03 09:31:15;;;;;;;1.52;0.77;;;22.40;56.10;;;;;;4123126;28;20121;-48
2023/05/03 09:33:38;;;;;;;5.32;1.00;;;22.40;56.00;;;;;;4133419;28;20497;-44
2023/05/03 09:36:03;;;;;;;1.73;0.77;;;22.40;55.80;;;;;;4133535;28;20515;-51
2023/05/03 09:38:30;;;;;;;1.92;0.80;;;22.50;55.90;;;;;;4131469;28;20042;-42
2023/05/03 09:40:53;;;;;;;2.13;1.02;;;22.50;55.80;;;;;;4112882;28;20263;-44
2023/05/03 09:43:16;;;;;;;4.43;1.00;;;22.50;56.10;;;;;;4129379;28;20581;-45
2023/05/03 09:45:39;;;;;;;2.80;0.63;;;22.50;56.10;;;;;;4132195;28;20281;-43
2023/05/03 09:48:06;;;;;;;8.13;1.00;;;22.60;56.20;;;;;;4130243;28;20429;-42
2023/05/03 09:50:30;;;;;;;2.63;0.85;;;22.60;55.80;;;;;;4133226;28;20470;-48
2023/05/03 09:52:55;;;;;;;1.73;0.60;;;22.60;55.10;;;;;;4135661;28;20562;-43
2023/05/03 09:55:17;;;;;;;2.03;0.70;;;22.50;54.20;;;;;;4134516;28;20505;-47
2023/05/03 09:57:41;;;;;;;2.05;0.50;;;22.50;53.80;;;;;;4131318;28;20048;-47
2023/05/03 10:00:03;;;;;;;;;;;22.40;54.20;;;;;;4134844;28;20034;-48
2023/05/03 10:02:26;;;;;;;1.98;0.63;;;22.40;54.10;;;;;;4133172;28;19921;-47
2023/05/03 10:04:52;;;;;;;4.80;0.80;;;22.40;54.80;;;;;;4118227;28;20080;-46
2023/05/03 10:07:18;;;;;;;1.55;0.70;;;22.40;54.70;;;;;;4131879;28;20045;-50
2023/05/03 10:09:46;;;;;;;2.55;0.73;;;22.40;54.50;;;;;;4126580;28;20038;-49
2023/05/03 10:12:16;;;;;;;2.15;0.77;;;22.40;54.90;;;;;;4110239;28;20046;-48
2023/05/03 10:14:41;;;;;;;4.57;0.90;;;22.40;55.30;;;;;;4133857;28;20034;-49
2023/05/03 10:17:25;;;;;;;2.88;0.80;;;22.40;55.60;;;;;;4132792;28;20048;-47
2023/05/03 10:20:10;;;;;;;1.52;0.80;;;22.40;55.80;;;;;;4129623;28;20042;-47
2023/05/03 10:22:52;;;;;;;2.22;0.50;;;22.40;56.10;;;;;;4126853;28;20046;-49
2023/05/03 10:25:14;;;;;;;1.55;0.65;;;22.50;56.30;;;;;;4132222;28;20042;-44
2023/05/03 10:27:46;;;;;;;2.78;0.73;;;22.50;56.10;;;;;;4128528;28;20049;-44
2023/05/03 10:30:27;;;;;;;3.20;0.80;;;22.50;55.60;;;;;;4129719;28;20038;-47
2023/05/03 10:32:50;;;;;;;2.00;0.57;;;22.50;54.60;;;;;;4115989;28;20149;-49
2023/05/03 10:35:18;;;;;;;2.20;1.05;;;22.50;55.00;;;;;;4128879;28;20038;-51
2023/05/03 10:37:41;;;;;;;2.47;0.82;;;22.50;55.30;;;;;;4131315;28;21345;-47
2023/05/03 10:40:09;;;;;;;1.50;0.70;;;22.50;55.40;;;;;;4115318;28;20050;-48
2023/05/03 10:42:32;;;;;;;1.40;0.68;;;22.60;55.60;;;;;;4132149;28;20112;-47
2023/05/03 10:44:56;;;;;;;1.53;0.60;;;22.60;55.60;;;;;;4132558;28;20069;-47
2023/05/03 10:47:22;;;;;;;5.43;1.02;;;22.60;55.60;;;;;;4128375;28;20341;-44
2023/05/03 10:49:45;;;;;;;6.78;1.75;;;22.60;56.00;;;;;;4135003;28;20049;-50
2023/05/03 10:52:35;;;;;;;8.10;1.50;;;22.60;56.00;;;;;;4132161;28;20218;-49
2023/05/03 10:54:57;;;;;;;5.05;0.88;;;22.60;56.00;;;;;;4133191;28;20041;-46
2023/05/03 10:57:20;;;;;;;2.92;0.75;;;22.60;55.80;;;;;;4119773;28;20066;-43
2023/05/03 10:59:51;;;;;;;3.28;1.35;;;22.70;54.90;;;;;;4136799;28;20088;-43
2023/05/03 11:02:18;;;;;;;8.10;1.35;;;22.60;54.20;;;;;;4130314;28;20042;-45
2023/05/03 11:04:45;;;;;;;2.45;0.90;;;22.60;54.30;;;;;;4129480;28;20042;-44
2023/05/03 11:07:09;;;;;;;2.67;0.73;;;22.60;54.10;;;;;;4120148;28;20038;-45
2023/05/03 11:09:32;;;;;;;1.58;0.50;;;22.60;54.10;;;;;;4133693;28;20038;-43
2023/05/03 11:11:56;;;;;;;;;;;22.50;54.10;;;;;;4125299;28;20454;-47
2023/05/03 11:14:19;;;;;;;3.83;0.93;;;22.50;54.20;;;;;;4144295;28;19913;-48
2023/05/03 11:16:46;;;;;;;2.67;1.08;;;22.40;54.10;;;;;;4141098;28;20408;-46
2023/05/03 11:19:08;;;;;;;2.55;0.90;;;22.40;53.60;;;;;;4139280;28;20045;-46
2023/05/03 11:21:32;;;;;;;1.90;0.90;;;22.40;53.70;;;;;;4137864;28;20046;-44
2023/05/03 11:23:54;;;;;;;4.47;0.95;;;22.40;53.90;;;;;;4138768;28;20041;-50
2023/05/03 11:26:18;;;;;;;1.90;0.60;;;22.40;54.10;;;;;;4140978;28;20034;-47
2023/05/03 11:28:41;;;;;;;1.85;0.65;;;22.40;54.20;;;;;;4135178;28;20494;-44
2023/05/03 11:31:05;;;;;;;16.80;2.40;;;22.40;54.40;;;;;;4142717;28;20065;-46
2023/05/03 11:33:30;;;;;;;40.53;4.57;;;22.40;54.50;;;;;;4143802;28;20041;-49
2023/05/03 11:35:55;;;;;;;21.08;2.60;;;22.40;54.90;;;;;;4143452;28;20052;-47
2023/05/03 11:38:18;;;;;;;11.48;1.70;;;22.30;54.90;;;;;;4141512;28;20038;-49
2023/05/03 11:40:40;;;;;;;11.23;1.92;;;22.40;54.90;;;;;;4142265;28;20084;-42
2023/05/03 11:43:02;;;;;;;6.60;1.35;;;22.40;54.40;;;;;;4135633;28;20469;-48
2023/05/03 11:45:31;;;;;;;9.88;1.70;;;22.30;54.30;;;;;;4127397;28;20035;-47
2023/05/03 11:47:54;;;;;;;6.32;1.60;;;22.30;54.40;;;;;;4142073;28;20089;-47
2023/05/03 11:50:17;;;;;;;5.65;1.17;;;22.30;54.40;;;;;;4117329;28;20046;-46
2023/05/03 11:52:40;;;;;;;8.00;1.33;;;22.30;54.50;;;;;;4140205;28;20410;-46
2023/05/03 11:55:03;;;;;;;2.28;1.17;;;22.30;54.50;;;;;;4150845;28;20042;-43
2023/05/03 11:57:31;;;;;;;3.50;1.07;;;22.30;54.70;;;;;;4140789;28;20510;-43
2023/05/03 11:59:54;;;;;;;6.15;1.60;;;22.30;54.80;;;;;;4141923;28;20294;-45
2023/05/03 12:02:17;;;;;;;2.70;1.13;;;22.30;54.90;;;;;;4139766;28;20089;-44
2023/05/03 12:04:42;;;;;;;6.57;1.33;;;22.30;54.40;;;;;;4143130;28;20045;-48
2023/05/03 12:07:06;;;;;;;8.48;1.35;;;22.30;52.60;;;;;;4140157;28;20033;-48
2023/05/03 12:09:28;;;;;;;4.47;1.10;;;22.30;52.80;;;;;;4141620;28;21817;-47
2023/05/03 12:11:51;;;;;;;11.25;1.83;;;22.30;52.90;;;;;;4141317;28;20061;-50
2023/05/03 12:14:14;;;;;;;12.70;2.63;;;22.30;53.10;;;;;;4139214;28;20038;-56
2023/05/03 12:16:51;;;;;;;6.78;1.52;;;22.20;53.50;;;;;;4131171;28;20033;-48
2023/05/03 12:19:29;;;;;;;9.25;1.95;;;22.20;53.60;;;;;;4138173;28;20038;-55
2023/05/03 12:21:52;;;;;;;12.80;1.67;;;22.20;53.90;;;;;;4133436;28;20125;-53
2023/05/03 12:24:16;;;;;;;12.45;2.22;;;22.20;54.10;;;;;;4120470;28;20514;-52
2023/05/03 12:26:38;;;;;;;5.45;1.60;;;22.20;54.30;;;;;;4126076;28;20505;-53
2023/05/03 12:29:01;;;;;;;6.05;1.05;;;22.20;54.30;;;;;;4142636;28;20034;-54
2023/05/03 12:31:23;;;;;;;6.78;1.20;;;22.10;54.40;;;;;;4141349;28;20053;-52